Time;durP1;ratioP1;P1;durP2;ratioP2;P2;SDS_P1;SDS_P2;PMS_P1;PMS_P2;Temp;Humidity;BMP_temperature;BMP_pressure;BME280_temperature;BME280_humidity;BME280_pressure;Samples;Min_cycle;Max_cycle;Signal;HPM_P1;HPM_P2
2022/11/21 00:00:54;;;;;;;1.63;0.83;;;7.90;99.90;;;;;;5034033;28;20436;-72
2022/11/21 00:03:20;;;;;;;0.90;0.70;;;7.90;99.90;;;;;;5033619;28;20435;-72
2022/11/21 00:05:47;;;;;;;0.90;0.77;;;7.90;99.90;;;;;;5033398;28;20200;-72
2022/11/21 00:08:15;;;;;;;0.70;0.60;;;7.80;99.90;;;;;;5033904;28;20167;-72
2022/11/21 00:10:41;;;;;;;3.80;0.90;;;7.60;99.90;;;;;;5033542;28;20398;-72
2022/11/21 00:13:12;;;;;;;1.27;0.60;;;7.60;99.90;;;;;;5033317;28;20405;-72
2022/11/21 00:15:38;;;;;;;0.70;0.60;;;7.50;99.90;;;;;;5033408;28;20420;-71
2022/11/21 00:18:04;;;;;;;1.07;0.60;;;7.50;99.90;;;;;;5033524;28;20416;-71
2022/11/21 00:20:30;;;;;;;0.80;0.60;;;7.50;99.90;;;;;;5033358;28;20171;-71
2022/11/21 00:22:56;;;;;;;0.90;0.60;;;7.40;99.90;;;;;;5033799;28;20760;-73
2022/11/21 00:25:21;;;;;;;0.80;0.50;;;7.40;99.90;;;;;;5033478;28;20453;-72
2022/11/21 00:27:47;;;;;;;1.03;0.40;;;7.30;99.90;;;;;;5033293;28;20169;-72
2022/11/21 00:30:13;;;;;;;1.03;0.60;;;7.40;99.90;;;;;;5033563;28;20194;-72
2022/11/21 00:32:39;;;;;;;2.23;0.60;;;7.50;99.90;;;;;;5033737;28;20171;-73
2022/11/21 00:35:05;;;;;;;0.80;0.63;;;7.40;99.90;;;;;;5032971;28;20445;-72
2022/11/21 00:37:31;;;;;;;0.70;0.60;;;7.50;99.90;;;;;;5033238;28;20176;-72
2022/11/21 00:39:57;;;;;;;0.90;0.50;;;7.50;99.90;;;;;;5033131;28;20424;-72
2022/11/21 00:42:23;;;;;;;0.80;0.60;;;7.40;99.90;;;;;;5032111;28;20773;-71
2022/11/21 00:44:48;;;;;;;0.70;0.50;;;7.30;99.90;;;;;;5032859;28;20253;-71
2022/11/21 00:47:14;;;;;;;1.07;0.50;;;7.30;99.90;;;;;;5033295;28;20205;-72
2022/11/21 00:49:39;;;;;;;0.70;0.60;;;7.30;99.90;;;;;;5033481;28;20674;-72
2022/11/21 00:52:05;;;;;;;1.17;0.60;;;7.20;99.90;;;;;;5033419;28;20164;-72
2022/11/21 00:54:31;;;;;;;1.63;0.60;;;7.00;99.90;;;;;;5033546;28;20178;-72
2022/11/21 00:56:56;;;;;;;0.80;0.60;;;6.90;99.90;;;;;;5033493;28;20270;-72
2022/11/21 00:59:22;;;;;;;0.77;0.53;;;6.70;99.90;;;;;;5033535;28;20290;-72
2022/11/21 01:01:47;;;;;;;0.60;0.50;;;6.70;99.90;;;;;;5033731;28;20183;-72
2022/11/21 01:04:13;;;;;;;1.07;0.50;;;6.50;99.90;;;;;;5033635;28;20198;-72
2022/11/21 01:06:39;;;;;;;0.73;0.50;;;6.50;99.90;;;;;;5034463;28;20211;-72
2022/11/21 01:09:04;;;;;;;0.70;0.50;;;6.50;99.90;;;;;;5036357;28;20700;-71
2022/11/21 01:11:30;;;;;;;0.80;0.50;;;6.60;99.90;;;;;;5038679;28;20183;-72
2022/11/21 01:13:56;;;;;;;1.00;0.60;;;6.60;99.90;;;;;;5038906;28;20254;-72
2022/11/21 01:16:24;;;;;;;1.57;0.70;;;6.60;99.90;;;;;;5050546;28;20955;-71
2022/11/21 01:18:50;;;;;;;0.80;0.50;;;6.80;99.90;;;;;;5057887;28;20176;-71
2022/11/21 01:21:22;;;;;;;2.20;0.77;;;6.80;99.90;;;;;;5056119;28;20413;-71
2022/11/21 01:23:49;;;;;;;1.83;0.80;;;6.80;99.90;;;;;;5056034;28;20397;-71
2022/11/21 01:26:20;;;;;;;1.43;0.70;;;6.80;99.90;;;;;;5054485;28;20802;-71
2022/11/21 01:28:46;;;;;;;1.60;0.63;;;6.90;99.90;;;;;;5053866;28;20414;-71
2022/11/21 01:31:18;;;;;;;1.93;0.70;;;7.10;99.90;;;;;;5054437;28;20465;-72
2022/11/21 01:33:44;;;;;;;0.80;0.70;;;7.20;99.90;;;;;;5052934;28;20406;-71
2022/11/21 01:36:10;;;;;;;1.13;0.80;;;7.20;99.90;;;;;;5053181;28;20449;-71
2022/11/21 01:38:36;;;;;;;1.93;0.93;;;7.20;99.90;;;;;;5052206;28;20945;-72
2022/11/21 01:41:02;;;;;;;1.73;1.17;;;7.20;99.90;;;;;;5036108;28;20282;-73
2022/11/21 01:43:27;;;;;;;2.03;0.70;;;6.80;99.90;;;;;;5035019;28;20759;-71
2022/11/21 01:45:55;;;;;;;1.57;0.80;;;6.70;99.90;;;;;;5036183;28;20457;-72
2022/11/21 01:48:38;;;;;;;3.50;1.07;;;6.50;99.90;;;;;;5034907;28;20167;-73
2022/11/21 01:51:17;;;;;;;1.60;0.90;;;6.50;99.90;;;;;;5036083;28;20378;-72
2022/11/21 01:53:50;;;;;;;3.20;1.03;;;6.60;99.90;;;;;;5036266;28;20383;-70
2022/11/21 01:56:15;;;;;;;1.53;0.80;;;6.50;99.90;;;;;;5036136;28;20418;-71
2022/11/21 01:58:43;;;;;;;1.13;0.57;;;6.60;99.90;;;;;;5036526;28;20814;-71
2022/11/21 02:01:09;;;;;;;2.27;1.03;;;6.50;99.90;;;;;;5035893;28;20654;-72
2022/11/21 02:03:37;;;;;;;2.90;1.00;;;6.80;99.90;;;;;;5035706;28;20412;-71
2022/11/21 02:06:05;;;;;;;3.00;1.27;;;6.70;99.90;;;;;;5035764;28;20183;-71
2022/11/21 02:08:30;;;;;;;4.63;1.13;;;6.70;99.90;;;;;;5035675;28;20464;-72
2022/11/21 02:11:11;;;;;;;3.50;1.00;;;6.80;99.90;;;;;;5035615;28;20402;-71
2022/11/21 02:13:36;;;;;;;1.90;0.80;;;6.80;99.90;;;;;;5036004;28;20219;-71
2022/11/21 02:16:02;;;;;;;2.20;1.00;;;6.60;99.90;;;;;;5035517;28;20452;-72
2022/11/21 02:18:28;;;;;;;1.27;0.90;;;6.50;99.90;;;;;;5035527;28;20159;-72
2022/11/21 02:21:08;;;;;;;0.80;0.77;;;6.50;99.90;;;;;;5033928;28;20174;-71
2022/11/21 02:23:42;;;;;;;1.80;0.90;;;6.50;99.90;;;;;;5035391;28;20213;-71
2022/11/21 02:26:09;;;;;;;1.93;0.73;;;6.40;99.90;;;;;;5035530;28;20434;-71
2022/11/21 02:28:35;;;;;;;1.57;0.60;;;6.40;99.90;;;;;;5035535;28;20405;-71
2022/11/21 02:31:00;;;;;;;1.43;0.80;;;6.50;99.90;;;;;;5035600;28;20460;-71
2022/11/21 02:33:26;;;;;;;1.33;0.87;;;6.60;99.90;;;;;;5035283;28;20406;-72
2022/11/21 02:36:00;;;;;;;1.30;1.00;;;6.60;99.90;;;;;;5033911;28;20211;-71
2022/11/21 02:38:32;;;;;;;2.30;0.80;;;6.70;99.90;;;;;;5034947;28;20645;-70
2022/11/21 02:41:05;;;;;;;1.97;0.70;;;6.60;99.90;;;;;;5033723;28;20422;-70
2022/11/21 02:43:44;;;;;;;1.10;0.70;;;6.60;99.90;;;;;;5015010;28;20398;-70
2022/11/21 02:46:09;;;;;;;1.63;1.13;;;6.50;99.90;;;;;;5015056;28;20427;-70
2022/11/21 02:48:37;;;;;;;2.87;1.10;;;6.50;99.90;;;;;;5015043;28;20402;-72
2022/11/21 02:51:02;;;;;;;1.40;0.90;;;6.50;99.90;;;;;;5015080;28;20160;-70
2022/11/21 02:53:28;;;;;;;1.27;0.80;;;6.40;99.90;;;;;;5014999;28;20411;-71
2022/11/21 02:55:53;;;;;;;2.10;0.70;;;6.30;99.90;;;;;;5015074;28;20184;-71
2022/11/21 02:58:19;;;;;;;1.53;0.70;;;6.50;99.90;;;;;;5014726;28;20172;-71
2022/11/21 03:00:45;;;;;;;1.10;0.90;;;6.60;99.90;;;;;;5013729;28;20251;-71
2022/11/21 03:03:10;;;;;;;1.67;1.00;;;6.80;99.90;;;;;;5014918;28;20693;-72
2022/11/21 03:05:37;;;;;;;0.90;0.70;;;6.70;99.90;;;;;;5014651;28;20200;-72
2022/11/21 03:08:04;;;;;;;0.83;0.60;;;6.60;99.90;;;;;;5014818;28;20161;-72
2022/11/21 03:10:30;;;;;;;1.43;0.80;;;6.60;99.90;;;;;;5014920;28;20403;-71
2022/11/21 03:12:59;;;;;;;1.43;0.60;;;6.70;99.90;;;;;;5030253;28;20417;-71
2022/11/21 03:15:27;;;;;;;2.23;1.33;;;6.50;99.90;;;;;;5036841;28;20822;-72
2022/11/21 03:17:53;;;;;;;2.03;0.60;;;6.30;99.90;;;;;;5034802;28;20489;-70
2022/11/21 03:20:18;;;;;;;1.57;0.70;;;6.40;99.90;;;;;;5034298;28;20456;-70
2022/11/21 03:22:44;;;;;;;1.30;0.77;;;6.30;99.90;;;;;;5034714;28;20168;-71
2022/11/21 03:25:10;;;;;;;1.67;0.60;;;6.30;99.90;;;;;;5033121;28;20689;-72
2022/11/21 03:27:35;;;;;;;1.80;0.70;;;6.10;99.90;;;;;;5034400;28;20164;-70
2022/11/21 03:30:01;;;;;;;0.80;0.60;;;6.10;99.90;;;;;;5034533;28;20163;-71
2022/11/21 03:32:26;;;;;;;1.07;0.67;;;6.20;99.90;;;;;;5034492;28;20167;-71
2022/11/21 03:34:52;;;;;;;0.80;0.70;;;6.30;99.90;;;;;;5034969;28;20168;-70
2022/11/21 03:37:18;;;;;;;0.73;0.50;;;6.30;99.90;;;;;;5034694;28;20170;-71
2022/11/21 03:39:43;;;;;;;1.63;0.70;;;6.30;99.90;;;;;;5034415;28;20168;-71
2022/11/21 03:42:09;;;;;;;0.70;0.50;;;6.40;99.90;;;;;;5033613;28;20180;-72
2022/11/21 03:44:35;;;;;;;1.10;0.77;;;6.50;99.90;;;;;;5035098;28;20203;-71
2022/11/21 03:47:00;;;;;;;0.70;0.50;;;6.50;99.90;;;;;;5035434;28;20191;-72
2022/11/21 03:49:26;;;;;;;0.90;0.70;;;6.60;99.90;;;;;;5036055;28;20184;-72
2022/11/21 03:51:51;;;;;;;0.60;0.50;;;6.80;99.90;;;;;;5036546;28;20195;-72
2022/11/21 03:54:17;;;;;;;0.73;0.50;;;6.90;99.90;;;;;;5036376;28;20171;-73
2022/11/21 03:56:42;;;;;;;0.80;0.50;;;7.10;99.90;;;;;;5034758;28;20266;-72
2022/11/21 03:59:08;;;;;;;0.90;0.60;;;7.00;99.90;;;;;;5034256;28;20536;-72
2022/11/21 04:01:34;;;;;;;0.70;0.53;;;7.10;99.90;;;;;;5035073;28;20528;-73
2022/11/21 04:03:59;;;;;;;1.50;0.60;;;7.20;99.90;;;;;;5035042;28;20201;-72
2022/11/21 04:06:25;;;;;;;0.80;0.50;;;7.30;99.90;;;;;;5034476;28;20552;-72
2022/11/21 04:08:51;;;;;;;0.70;0.50;;;7.40;99.90;;;;;;5033699;28;20201;-72
2022/11/21 04:11:17;;;;;;;2.03;0.50;;;7.30;99.90;;;;;;5032301;28;20647;-73
2022/11/21 04:13:42;;;;;;;1.77;0.53;;;7.40;99.90;;;;;;5033291;28;20409;-72
2022/11/21 04:16:08;;;;;;;1.10;0.70;;;7.50;99.90;;;;;;5033715;28;20422;-71
2022/11/21 04:18:34;;;;;;;0.80;0.60;;;7.50;99.90;;;;;;5033232;28;20175;-71
2022/11/21 04:21:05;;;;;;;1.53;0.60;;;7.40;99.90;;;;;;5033565;28;20162;-72
2022/11/21 04:23:31;;;;;;;0.70;0.50;;;7.50;99.90;;;;;;5033345;28;20411;-71
2022/11/21 04:25:57;;;;;;;1.00;0.60;;;7.40;99.90;;;;;;5032992;28;21051;-72
2022/11/21 04:28:22;;;;;;;3.43;0.70;;;7.40;99.90;;;;;;5031612;28;20190;-72
2022/11/21 04:30:48;;;;;;;1.60;0.60;;;7.40;99.90;;;;;;5032904;28;20171;-70
2022/11/21 04:33:15;;;;;;;1.30;0.67;;;7.40;99.90;;;;;;5031781;28;20532;-71
2022/11/21 04:35:44;;;;;;;3.07;0.80;;;7.50;99.90;;;;;;5032887;28;20463;-71
2022/11/21 04:38:11;;;;;;;1.23;0.70;;;7.40;99.90;;;;;;5032280;28;20416;-70
2022/11/21 04:40:37;;;;;;;1.20;0.73;;;7.50;99.90;;;;;;5033055;28;20407;-73
2022/11/21 04:43:03;;;;;;;0.93;0.80;;;7.60;99.90;;;;;;5032249;28;20798;-71
2022/11/21 04:45:30;;;;;;;2.07;0.70;;;7.50;99.90;;;;;;5033131;28;20470;-70
2022/11/21 04:47:56;;;;;;;1.20;0.83;;;7.50;99.90;;;;;;5033654;28;20416;-71
2022/11/21 04:50:22;;;;;;;3.03;0.87;;;7.50;99.90;;;;;;5033182;28;20481;-72
2022/11/21 04:52:52;;;;;;;0.70;0.60;;;7.60;99.90;;;;;;5033025;28;20167;-71
2022/11/21 04:55:18;;;;;;;1.60;0.80;;;7.50;99.90;;;;;;5032955;28;20271;-71
2022/11/21 04:57:44;;;;;;;2.40;0.80;;;7.50;99.90;;;;;;5032734;28;20860;-71
2022/11/21 05:00:11;;;;;;;0.97;0.83;;;7.40;99.90;;;;;;5033236;28;20399;-71
2022/11/21 05:02:37;;;;;;;1.70;0.60;;;7.40;99.90;;;;;;5032918;28;20201;-71
2022/11/21 05:05:03;;;;;;;1.10;0.77;;;7.30;99.90;;;;;;5032957;28;20463;-71
2022/11/21 05:07:29;;;;;;;1.10;0.70;;;7.30;99.90;;;;;;5033939;28;20754;-71
2022/11/21 05:09:54;;;;;;;0.97;0.70;;;7.20;99.90;;;;;;5034082;28;20512;-71
2022/11/21 05:15:04;;;;;;;0.90;0.80;;;7.10;99.90;;;;;;5030556;28;20640;-70
2022/11/21 05:17:30;;;;;;;1.10;0.90;;;7.20;99.90;;;;;;5031267;28;20449;-72
2022/11/21 05:19:55;;;;;;;2.10;0.77;;;7.30;99.90;;;;;;5033112;28;20421;-72
2022/11/21 05:22:21;;;;;;;1.23;1.00;;;7.20;99.90;;;;;;5032951;28;20652;-71
2022/11/21 05:24:46;;;;;;;3.30;1.07;;;7.10;99.90;;;;;;5035013;28;20195;-71
2022/11/21 05:27:12;;;;;;;1.40;0.80;;;7.10;99.90;;;;;;5032329;28;20268;-72
2022/11/21 05:29:37;;;;;;;2.10;0.83;;;7.10;99.90;;;;;;5032582;28;20184;-72
2022/11/21 05:32:03;;;;;;;1.93;1.00;;;7.00;99.90;;;;;;5032934;28;20268;-72
2022/11/21 05:34:29;;;;;;;1.77;0.77;;;7.00;99.90;;;;;;5032860;28;20168;-72
2022/11/21 05:36:57;;;;;;;2.90;1.00;;;7.00;99.90;;;;;;5033578;28;20278;-72
2022/11/21 05:39:23;;;;;;;1.50;1.10;;;6.90;99.90;;;;;;5033341;28;20255;-71
2022/11/21 05:41:49;;;;;;;1.40;1.00;;;7.10;99.90;;;;;;5034095;28;20485;-72
2022/11/21 05:44:15;;;;;;;1.37;0.87;;;7.10;99.90;;;;;;5032025;28;20666;-71
2022/11/21 05:46:40;;;;;;;7.43;1.03;;;7.00;99.90;;;;;;5032867;28;20423;-71
2022/11/21 05:49:07;;;;;;;1.70;0.97;;;7.10;99.90;;;;;;5032689;28;20247;-71
2022/11/21 05:51:32;;;;;;;2.67;1.20;;;7.10;99.90;;;;;;5032594;28;20212;-72
2022/11/21 05:53:58;;;;;;;2.00;1.00;;;7.20;99.90;;;;;;5032445;28;20402;-72
2022/11/21 05:56:24;;;;;;;2.33;0.93;;;7.20;99.90;;;;;;5035336;28;20234;-71
2022/11/21 05:58:50;;;;;;;3.43;1.00;;;7.20;99.90;;;;;;5035097;28;20402;-73
2022/11/21 06:03:25;;;;;;;1.53;1.03;;;7.10;99.90;;;;;;5035073;28;20395;-72
2022/11/21 06:04:02;;;;;;;1.07;0.87;;;7.10;99.90;;;;;;5034564;28;20202;-71
2022/11/21 06:06:27;;;;;;;1.90;1.00;;;7.30;99.90;;;;;;5035645;28;20411;-72
2022/11/21 06:08:53;;;;;;;1.53;0.90;;;7.20;99.90;;;;;;5035859;28;20164;-70
2022/11/21 06:11:18;;;;;;;2.10;1.10;;;7.20;99.90;;;;;;5036066;28;20175;-70
2022/11/21 06:13:44;;;;;;;3.00;1.27;;;7.20;99.90;;;;;;5035338;28;20663;-72
2022/11/21 06:16:12;;;;;;;1.80;0.80;;;7.30;99.90;;;;;;5035496;28;20191;-71
2022/11/21 06:18:40;;;;;;;1.23;1.03;;;7.30;99.90;;;;;;5035454;28;20168;-72
2022/11/21 06:21:33;;;;;;;1.10;0.90;;;7.50;99.90;;;;;;5034222;28;20490;-71
2022/11/21 06:23:59;;;;;;;1.87;1.07;;;7.50;99.90;;;;;;5031628;28;20408;-71
2022/11/21 06:26:27;;;;;;;2.47;1.40;;;7.70;99.90;;;;;;5035517;28;20424;-72
2022/11/21 06:28:53;;;;;;;1.63;1.27;;;7.80;99.90;;;;;;5035439;28;20539;-71
2022/11/21 06:31:21;;;;;;;1.47;0.93;;;7.90;99.90;;;;;;5035579;28;20496;-72
2022/11/21 06:33:54;;;;;;;1.93;1.40;;;8.00;99.90;;;;;;5035058;28;20445;-69
2022/11/21 06:36:20;;;;;;;5.00;1.20;;;8.00;99.90;;;;;;5034894;28;20445;-71
2022/11/21 06:38:46;;;;;;;4.00;1.70;;;8.00;99.90;;;;;;5035418;28;20898;-71
2022/11/21 06:41:17;;;;;;;1.70;1.10;;;8.20;99.90;;;;;;5035051;28;20416;-71
2022/11/21 06:43:44;;;;;;;3.83;2.60;;;8.20;99.90;;;;;;5032681;28;20173;-71
2022/11/21 06:46:10;;;;;;;4.23;2.60;;;8.20;99.90;;;;;;5035010;28;20926;-72
2022/11/21 06:48:36;;;;;;;3.83;1.70;;;8.10;99.90;;;;;;5035079;28;20970;-72
2022/11/21 06:51:18;;;;;;;1.80;1.33;;;7.80;99.90;;;;;;5033939;28;20414;-71
2022/11/21 06:53:45;;;;;;;3.63;1.47;;;7.60;99.90;;;;;;5035459;28;20414;-71
2022/11/21 06:56:10;;;;;;;3.93;1.47;;;7.50;99.90;;;;;;5035322;28;20425;-72
2022/11/21 06:58:36;;;;;;;1.97;1.20;;;7.30;99.90;;;;;;5034827;28;20763;-71
2022/11/21 07:01:07;;;;;;;1.83;1.20;;;7.20;99.90;;;;;;5034977;28;20173;-72
2022/11/21 07:03:33;;;;;;;1.90;1.70;;;7.10;99.90;;;;;;5034835;28;20192;-71
2022/11/21 07:06:00;;;;;;;2.17;1.40;;;6.90;99.90;;;;;;5033616;28;20521;-71
2022/11/21 07:08:27;;;;;;;1.40;1.30;;;6.80;99.90;;;;;;5035635;28;20429;-71
2022/11/21 07:10:53;;;;;;;1.77;1.23;;;6.80;99.90;;;;;;5035112;28;20411;-72
2022/11/21 07:13:22;;;;;;;2.70;1.40;;;6.60;99.90;;;;;;5034593;28;20778;-71
2022/11/21 07:15:52;;;;;;;2.00;1.50;;;6.70;99.90;;;;;;5034588;28;20422;-71
2022/11/21 07:18:19;;;;;;;2.60;1.70;;;6.60;99.90;;;;;;5034904;28;20414;-72
2022/11/21 07:20:45;;;;;;;1.30;1.20;;;6.60;99.90;;;;;;5034212;28;20897;-71
2022/11/21 07:23:11;;;;;;;2.90;1.80;;;6.50;99.90;;;;;;5034148;28;20402;-71
2022/11/21 07:25:38;;;;;;;2.70;1.40;;;6.60;99.90;;;;;;5034070;28;20936;-71
2022/11/21 07:28:06;;;;;;;2.33;1.20;;;6.70;99.90;;;;;;5034354;28;20202;-72
2022/11/21 07:30:32;;;;;;;2.70;1.10;;;6.70;99.90;;;;;;5034437;28;20433;-71
2022/11/21 07:32:59;;;;;;;4.73;1.93;;;6.70;99.90;;;;;;5034570;28;20440;-71
2022/11/21 07:35:25;;;;;;;3.80;2.20;;;6.70;99.90;;;;;;5034161;28;20466;-72
2022/11/21 07:37:51;;;;;;;2.23;1.50;;;6.70;99.90;;;;;;5034193;28;20410;-72
2022/11/21 07:40:17;;;;;;;1.63;1.30;;;6.60;99.90;;;;;;5034090;28;20828;-73
2022/11/21 07:42:43;;;;;;;3.17;1.97;;;6.70;99.90;;;;;;5033101;28;20967;-72
2022/11/21 07:45:09;;;;;;;2.40;1.40;;;6.70;99.90;;;;;;5034209;28;20454;-73
2022/11/21 07:47:35;;;;;;;2.80;2.10;;;6.70;99.90;;;;;;5034046;28;20182;-71
2022/11/21 07:50:01;;;;;;;2.00;1.70;;;6.50;99.90;;;;;;5032403;28;20414;-72
2022/11/21 07:52:29;;;;;;;2.23;1.50;;;6.60;99.90;;;;;;5033762;28;20168;-72
2022/11/21 07:54:55;;;;;;;3.70;1.80;;;6.70;99.90;;;;;;5034545;28;20633;-72
2022/11/21 07:57:20;;;;;;;8.63;1.83;;;6.60;99.90;;;;;;5034469;28;20409;-72
2022/11/21 07:59:46;;;;;;;2.23;2.03;;;6.80;99.90;;;;;;5033532;28;20412;-71
2022/11/21 08:02:26;;;;;;;2.40;1.10;;;6.80;99.90;;;;;;5034098;28;20194;-71
2022/11/21 08:04:52;;;;;;;2.43;1.80;;;6.90;99.90;;;;;;5033626;28;20190;-72
2022/11/21 08:07:19;;;;;;;5.50;1.83;;;6.90;99.90;;;;;;5034491;28;20405;-72
2022/11/21 08:09:45;;;;;;;4.80;1.77;;;6.80;99.90;;;;;;5036354;28;20413;-71
2022/11/21 08:12:11;;;;;;;6.00;2.47;;;6.70;99.90;;;;;;5035346;28;20418;-70
2022/11/21 08:14:37;;;;;;;2.50;1.80;;;6.90;99.90;;;;;;5033464;28;20406;-70
2022/11/21 08:17:03;;;;;;;2.13;1.40;;;7.00;99.90;;;;;;5033394;28;20414;-72
2022/11/21 08:19:29;;;;;;;2.30;1.70;;;7.00;99.90;;;;;;5033847;28;20489;-72
2022/11/21 08:21:55;;;;;;;5.73;1.77;;;7.20;99.90;;;;;;5032661;28;20442;-74
2022/11/21 08:24:20;;;;;;;3.43;1.73;;;7.20;99.90;;;;;;5033247;28;20227;-72
2022/11/21 08:26:46;;;;;;;3.80;1.73;;;7.30;99.90;;;;;;5033562;28;20718;-72
2022/11/21 08:29:14;;;;;;;4.00;1.70;;;7.40;99.90;;;;;;5033202;28;20208;-72
2022/11/21 08:31:40;;;;;;;2.30;1.40;;;7.50;99.90;;;;;;5033287;28;20172;-71
2022/11/21 08:34:06;;;;;;;5.10;1.80;;;7.60;99.90;;;;;;5033176;28;20443;-71
2022/11/21 08:36:32;;;;;;;3.37;1.70;;;7.60;99.90;;;;;;5032929;28;20492;-72
2022/11/21 08:38:57;;;;;;;4.57;1.80;;;7.60;99.90;;;;;;5033414;28;20419;-71
2022/11/21 08:44:07;;;;;;;2.00;1.43;;;7.80;99.90;;;;;;5033010;28;20192;-73
2022/11/21 08:46:36;;;;;;;2.87;1.73;;;7.80;99.90;;;;;;5033010;28;20427;-72
2022/11/21 08:49:05;;;;;;;2.77;1.70;;;7.70;99.90;;;;;;5033231;28;20200;-72
2022/11/21 08:51:31;;;;;;;3.17;1.10;;;7.80;99.90;;;;;;5033018;28;20408;-71
2022/11/21 08:53:57;;;;;;;6.20;1.80;;;7.90;99.90;;;;;;5032902;28;20418;-72
2022/11/21 08:56:23;;;;;;;2.13;1.50;;;7.90;99.90;;;;;;5032819;28;20515;-72
2022/11/21 08:58:48;;;;;;;3.03;1.73;;;7.80;99.90;;;;;;5032679;28;20180;-72
2022/11/21 09:01:14;;;;;;;3.20;1.60;;;7.70;99.90;;;;;;5031496;28;20937;-72
2022/11/21 09:03:40;;;;;;;4.40;1.90;;;7.80;99.90;;;;;;5033020;28;20178;-72
2022/11/21 09:06:06;;;;;;;5.53;2.10;;;7.90;99.90;;;;;;5032551;28;20200;-72
2022/11/21 09:08:32;;;;;;;3.87;2.33;;;8.00;99.90;;;;;;5032851;28;20715;-72
2022/11/21 09:10:57;;;;;;;2.70;2.07;;;7.90;99.90;;;;;;5032726;28;20446;-72
2022/11/21 09:13:23;;;;;;;3.37;2.23;;;8.00;99.90;;;;;;5033477;28;20629;-72
2022/11/21 09:18:33;;;;;;;2.80;1.70;;;8.50;99.90;;;;;;5032724;28;20164;-73
2022/11/21 09:20:59;;;;;;;3.40;1.90;;;8.60;99.90;;;;;;5033023;28;20766;-72
2022/11/21 09:23:25;;;;;;;3.50;1.33;;;8.70;99.90;;;;;;5032860;28;20412;-70
2022/11/21 09:25:50;;;;;;;9.30;2.80;;;8.80;99.90;;;;;;5032385;28;20205;-72
2022/11/21 09:28:16;;;;;;;2.70;1.30;;;8.70;99.90;;;;;;5032434;28;20416;-72
2022/11/21 09:30:42;;;;;;;5.43;2.07;;;8.80;99.90;;;;;;5035286;28;20517;-72
2022/11/21 09:33:11;;;;;;;5.17;1.70;;;8.80;99.90;;;;;;5036381;28;20165;-71
2022/11/21 09:35:37;;;;;;;3.93;1.73;;;9.00;99.90;;;;;;5036360;28;20449;-72
2022/11/21 09:38:03;;;;;;;3.00;1.70;;;9.10;99.90;;;;;;5036764;28;20412;-72
2022/11/21 09:40:31;;;;;;;3.73;1.70;;;9.20;99.90;;;;;;5036595;28;20417;-72
2022/11/21 09:43:02;;;;;;;3.63;2.07;;;8.90;99.90;;;;;;5035393;28;20421;-72
2022/11/21 09:45:45;;;;;;;8.00;2.27;;;8.90;99.90;;;;;;5035600;28;20464;-72
2022/11/21 09:48:21;;;;;;;5.70;2.30;;;9.10;99.90;;;;;;5036219;28;20430;-72
2022/11/21 09:50:52;;;;;;;8.40;2.40;;;9.40;99.90;;;;;;5036279;28;20407;-73
2022/11/21 09:53:24;;;;;;;4.47;1.93;;;9.70;99.90;;;;;;5036205;28;20398;-72
2022/11/21 09:55:51;;;;;;;2.67;1.50;;;9.50;99.90;;;;;;5035938;28;20434;-72
2022/11/21 09:58:26;;;;;;;4.17;1.80;;;9.30;99.90;;;;;;5035514;28;20409;-71
2022/11/21 10:00:52;;;;;;;2.23;1.27;;;9.30;99.90;;;;;;5035774;28;20445;-72
2022/11/21 10:03:20;;;;;;;2.47;1.50;;;9.10;99.90;;;;;;5035546;28;20420;-70
2022/11/21 10:06:02;;;;;;;7.30;1.60;;;9.10;99.90;;;;;;5035999;28;20458;-72
2022/11/21 10:08:37;;;;;;;2.67;1.40;;;9.30;99.90;;;;;;5036023;28;20884;-72
2022/11/21 10:11:16;;;;;;;4.47;1.80;;;9.30;99.90;;;;;;5036039;28;20409;-72
2022/11/21 10:14:04;;;;;;;3.97;1.70;;;9.40;99.90;;;;;;5035692;28;20408;-72
2022/11/21 10:16:51;;;;;;;4.53;1.93;;;9.70;99.90;;;;;;5035490;28;20430;-72
2022/11/21 10:19:31;;;;;;;3.20;1.70;;;10.00;99.90;;;;;;5035248;28;20423;-72
2022/11/21 10:22:02;;;;;;;3.63;1.50;;;10.10;99.90;;;;;;5035363;28;20404;-72
2022/11/21 10:24:41;;;;;;;7.17;3.67;;;10.10;99.90;;;;;;5035191;28;20449;-73
2022/11/21 10:27:33;;;;;;;5.63;1.27;;;10.00;99.90;;;;;;5035283;28;20751;-72
2022/11/21 10:30:04;;;;;;;7.60;1.70;;;10.10;99.90;;;;;;5035045;28;20390;-72
2022/11/21 10:32:53;;;;;;;2.97;1.53;;;10.10;99.90;;;;;;5035525;28;20383;-72
2022/11/21 10:35:33;;;;;;;4.53;1.73;;;10.30;99.90;;;;;;5034129;28;20893;-72
2022/11/21 10:38:00;;;;;;;2.33;1.30;;;9.90;99.90;;;;;;5031434;28;20406;-72
2022/11/21 10:40:40;;;;;;;5.77;1.40;;;9.70;99.90;;;;;;5035141;28;20782;-71
2022/11/21 10:46:08;;;;;;;5.80;1.70;;;10.20;99.90;;;;;;5034870;28;20453;-71
2022/11/21 10:48:34;;;;;;;2.73;1.30;;;10.20;99.90;;;;;;5035003;28;20416;-72
2022/11/21 10:51:21;;;;;;;4.53;1.63;;;11.10;99.90;;;;;;5035351;28;20481;-71
2022/11/21 10:56:45;;;;;;;3.23;1.17;;;12.00;99.90;;;;;;5035107;28;20420;-72
2022/11/21 10:59:18;;;;;;;5.00;1.50;;;13.90;99.90;;;;;;5034762;28;20404;-72
2022/11/21 11:01:54;;;;;;;2.30;1.37;;;15.30;99.90;;;;;;5034820;28;20202;-72
2022/11/21 11:04:20;;;;;;;7.50;1.60;;;16.30;99.90;;;;;;5034983;28;20446;-73
2022/11/21 11:06:47;;;;;;;4.60;1.53;;;16.00;98.60;;;;;;5034658;28;20426;-72
2022/11/21 11:09:29;;;;;;;3.83;1.30;;;14.40;99.90;;;;;;5035144;28;20169;-72
2022/11/21 11:12:24;;;;;;;2.23;1.30;;;13.60;99.90;;;;;;5034824;28;20399;-72
2022/11/21 11:14:51;;;;;;;3.50;1.10;;;14.10;99.90;;;;;;5034162;28;20417;-72
2022/11/21 11:17:28;;;;;;;6.40;1.57;;;14.60;99.90;;;;;;5034540;28;20696;-72
2022/11/21 11:20:04;;;;;;;3.37;1.30;;;13.80;99.90;;;;;;5034456;28;20380;-72
2022/11/21 11:22:30;;;;;;;3.77;1.53;;;13.50;99.90;;;;;;5036999;28;20400;-72
2022/11/21 11:24:56;;;;;;;2.87;1.30;;;13.10;99.90;;;;;;5034359;28;20459;-72
2022/11/21 11:27:28;;;;;;;3.43;1.43;;;13.40;99.90;;;;;;5032808;28;20448;-72
2022/11/21 11:29:54;;;;;;;4.93;1.60;;;13.70;99.90;;;;;;5034145;28;20257;-72
2022/11/21 11:32:20;;;;;;;7.43;1.80;;;14.40;99.90;;;;;;5034147;28;20439;-72
2022/11/21 11:34:58;;;;;;;4.77;1.83;;;14.70;98.30;;;;;;5033889;28;20266;-72
2022/11/21 11:37:45;;;;;;;3.97;1.50;;;14.20;97.90;;;;;;5034469;28;20396;-73
2022/11/21 11:40:40;;;;;;;3.73;1.70;;;14.70;98.30;;;;;;5034198;28;20424;-72
2022/11/21 11:49:23;;;;;;;2.17;1.23;;;17.30;95.20;;;;;;5034000;28;20372;-72
2022/11/21 11:51:59;;;;;;;3.60;1.37;;;16.50;96.00;;;;;;5033672;28;20393;-72
2022/11/21 11:54:34;;;;;;;2.43;1.33;;;14.80;96.90;;;;;;5033611;28;20385;-72
2022/11/21 11:56:59;;;;;;;3.17;1.57;;;13.50;98.50;;;;;;5034413;28;20419;-74
2022/11/21 11:59:32;;;;;;;2.20;1.20;;;13.10;99.20;;;;;;5033370;28;20930;-73
2022/11/21 12:02:32;;;;;;;3.50;1.57;;;13.70;99.30;;;;;;5034362;28;20164;-71
2022/11/21 12:05:16;;;;;;;3.13;1.40;;;16.00;96.00;;;;;;5033781;28;21006;-73
2022/11/21 12:07:50;;;;;;;2.73;1.20;;;17.70;94.10;;;;;;5033522;28;20826;-73
2022/11/21 12:13:37;;;;;;;2.33;1.30;;;19.00;91.10;;;;;;5030948;28;20405;-72
2022/11/21 12:16:08;;;;;;;3.10;1.73;;;18.90;89.70;;;;;;5033352;28;20430;-72
2022/11/21 12:19:04;;;;;;;2.30;1.33;;;18.70;91.20;;;;;;5033472;28;20447;-72
2022/11/21 12:21:30;;;;;;;5.13;1.47;;;17.60;90.50;;;;;;5028383;28;20483;-71
2022/11/21 12:24:02;;;;;;;3.20;1.43;;;16.40;91.50;;;;;;5033796;28;20812;-71
2022/11/21 12:26:52;;;;;;;5.53;1.40;;;15.20;93.10;;;;;;5033236;28;20196;-71
2022/11/21 12:29:48;;;;;;;4.30;1.20;;;14.20;94.20;;;;;;5032926;28;20408;-73
2022/11/21 12:32:41;;;;;;;1.97;1.50;;;13.50;97.60;;;;;;5033201;28;20392;-72
2022/11/21 12:35:22;;;;;;;3.10;1.37;;;13.40;98.10;;;;;;5032704;28;20454;-71
2022/11/21 12:38:03;;;;;;;2.47;1.30;;;13.30;97.80;;;;;;5031626;28;20414;-71
2022/11/21 12:42:47;;;;;;;3.80;1.40;;;13.20;98.90;;;;;;5033047;28;20468;-71
2022/11/21 12:44:09;;;;;;;2.93;1.30;;;13.40;98.90;;;;;;5031331;28;20508;-71
2022/11/21 12:46:56;;;;;;;4.40;1.47;;;13.40;99.60;;;;;;5032821;28;20425;-72
2022/11/21 12:54:29;;;;;;;2.93;1.27;;;13.70;99.40;;;;;;5032794;28;20359;-71
2022/11/21 12:55:39;;;;;;;2.90;1.60;;;13.60;99.10;;;;;;5032464;28;20430;-71
2022/11/21 12:58:15;;;;;;;3.57;1.57;;;13.60;98.70;;;;;;5032751;28;20399;-72
2022/11/21 13:01:02;;;;;;;2.77;1.60;;;13.40;98.70;;;;;;5032543;28;20753;-72
2022/11/21 13:03:51;;;;;;;3.43;1.43;;;13.30;98.80;;;;;;5033317;28;20374;-72
2022/11/21 13:06:26;;;;;;;4.10;1.57;;;13.10;99.00;;;;;;5028482;28;20475;-71
2022/11/21 13:08:54;;;;;;;5.13;1.60;;;12.50;99.40;;;;;;5036788;28;20778;-72
2022/11/21 13:11:59;;;;;;;5.00;1.33;;;12.30;99.90;;;;;;5037436;28;20440;-73
2022/11/21 13:14:41;;;;;;;3.20;1.50;;;12.40;99.90;;;;;;5036860;28;20425;-72
2022/11/21 13:17:33;;;;;;;2.20;1.20;;;12.80;99.90;;;;;;5035508;28;20532;-72
2022/11/21 13:20:05;;;;;;;3.87;1.60;;;12.90;99.90;;;;;;5037287;28;20410;-72
2022/11/21 13:22:36;;;;;;;2.73;1.40;;;12.90;99.90;;;;;;5036644;28;20399;-71
2022/11/21 13:25:37;;;;;;;3.80;1.60;;;12.60;99.90;;;;;;5036637;28;20471;-70
2022/11/21 13:28:17;;;;;;;3.00;1.53;;;12.70;99.90;;;;;;5050203;28;20416;-71
2022/11/21 13:30:49;;;;;;;2.90;1.57;;;12.80;99.90;;;;;;5035719;28;20412;-71
2022/11/21 13:33:33;;;;;;;4.30;1.27;;;13.20;99.90;;;;;;5036548;28;20404;-71
2022/11/21 13:36:04;;;;;;;3.57;1.60;;;13.40;99.20;;;;;;5036303;28;20962;-71